createdAt,value
2023-01-19T00:00:46.007Z,99622.94
2023-01-19T00:03:16.395Z,99609.44
2023-01-19T00:05:44.718Z,99615.72
2023-01-19T00:08:15.062Z,99623.31
2023-01-19T00:10:44.404Z,99622.03
2023-01-19T00:13:11.854Z,99507.19
2023-01-19T00:15:39.355Z,99587.66
2023-01-19T00:18:07.615Z,99610.47
2023-01-19T00:20:35.983Z,99605.59
2023-01-19T00:23:04.923Z,99612.94
2023-01-19T00:25:32.241Z,99584.19
2023-01-19T00:28:01.542Z,99570.06
2023-01-19T00:30:29.181Z,99592.41
2023-01-19T00:32:56.883Z,99588.47
2023-01-19T00:35:24.096Z,99592.28
2023-01-19T00:37:51.519Z,99599.16
2023-01-19T00:40:18.819Z,99598.22
2023-01-19T00:42:48.365Z,99596.31
2023-01-19T00:45:20.427Z,99603.78
2023-01-19T00:47:48.883Z,99597.75
2023-01-19T00:50:17.580Z,99593.56
2023-01-19T00:52:45.443Z,99600.50
2023-01-19T00:55:14.341Z,99598.19
2023-01-19T00:57:42.116Z,99614.28
2023-01-19T01:00:12.682Z,99598.34
2023-01-19T01:02:41.957Z,99598.72
2023-01-19T01:05:09.984Z,99595.84
2023-01-19T01:07:45.190Z,99584.00
2023-01-19T01:10:27.468Z,99595.44
2023-01-19T01:12:57.656Z,99559.16
2023-01-19T01:15:26.676Z,99576.09
2023-01-19T01:17:54.529Z,99574.25
2023-01-19T01:20:25.622Z,99584.63
2023-01-19T01:22:54.025Z,99586.03
2023-01-19T01:25:24.103Z,99604.38
2023-01-19T01:27:51.787Z,99598.00
2023-01-19T01:30:19.749Z,99590.66
2023-01-19T01:32:46.892Z,99597.06
2023-01-19T01:35:14.212Z,99594.47
2023-01-19T01:37:43.017Z,99597.06
2023-01-19T01:40:16.028Z,99589.03
2023-01-19T01:42:43.583Z,99586.03
2023-01-19T01:45:31.183Z,99594.00
2023-01-19T01:48:27.590Z,99616.13
2023-01-19T01:51:18.811Z,99599.66
2023-01-19T01:53:47.420Z,99598.50
2023-01-19T01:56:20.739Z,99597.56
2023-01-19T01:58:49.090Z,99585.94
2023-01-19T02:01:34.940Z,99602.72
2023-01-19T02:04:02.438Z,99596.34
2023-01-19T02:06:29.779Z,99605.84
2023-01-19T02:09:25.839Z,99614.06
2023-01-19T02:12:13.248Z,99607.50
2023-01-19T02:14:40.370Z,99607.16
2023-01-19T02:17:07.721Z,99606.44
2023-01-19T02:19:54.994Z,99589.84
2023-01-19T02:22:32.051Z,99574.81
2023-01-19T02:24:59.387Z,99571.97
2023-01-19T02:27:26.602Z,99570.78
2023-01-19T02:29:54.302Z,99586.28
2023-01-19T02:32:21.433Z,99578.97
2023-01-19T02:34:48.556Z,99578.13
2023-01-19T02:37:17.548Z,99566.53
2023-01-19T02:39:58.143Z,99559.16
2023-01-19T02:42:36.095Z,99569.34
2023-01-19T02:45:09.597Z,99560.97
2023-01-19T02:47:43.375Z,99587.97
2023-01-19T02:50:43.775Z,99587.84
2023-01-19T02:53:21.147Z,99585.44
2023-01-19T02:55:57.172Z,99588.56
2023-01-19T02:58:56.956Z,99597.28
2023-01-19T03:01:43.177Z,99583.31
2023-01-19T03:04:29.107Z,99601.56
2023-01-19T03:07:02.959Z,99578.13
2023-01-19T03:09:43.833Z,99568.66
2023-01-19T03:12:46.001Z,99595.44
2023-01-19T03:15:22.381Z,99573.75
2023-01-19T03:17:51.561Z,99587.94
2023-01-19T03:20:25.541Z,99591.13
2023-01-19T03:23:00.630Z,99578.84
2023-01-19T03:25:31.266Z,99598.00
2023-01-19T03:27:58.517Z,99564.84
2023-01-19T03:30:34.879Z,99591.13
2023-01-19T03:33:13.164Z,99599.84
2023-01-19T03:35:49.153Z,99593.31
2023-01-19T03:38:20.977Z,99606.72
2023-01-19T03:40:49.027Z,99616.56
2023-01-19T03:43:17.605Z,99638.91
2023-01-19T03:45:45.389Z,99635.03
2023-01-19T03:48:12.826Z,99641.34
2023-01-19T03:50:39.952Z,99657.22
2023-01-19T03:53:09.657Z,99675.72
2023-01-19T03:55:38.740Z,99661.03
2023-01-19T03:58:06.063Z,99648.97
2023-01-19T04:00:34.142Z,99638.28
2023-01-19T04:03:01.644Z,99651.66
2023-01-19T04:05:29.612Z,99650.72
2023-01-19T04:07:57.034Z,99654.88
2023-01-19T04:10:24.509Z,99660.44
2023-01-19T04:12:58.340Z,99665.28
2023-01-19T04:15:26.535Z,99649.88
2023-01-19T04:17:53.823Z,99668.38
2023-01-19T04:20:21.860Z,99666.97
2023-01-19T04:22:49.740Z,99666.97
2023-01-19T04:25:16.986Z,99688.25
2023-01-19T04:27:44.128Z,99702.22
2023-01-19T04:30:12.026Z,99704.81
2023-01-19T04:32:39.170Z,99681.63
2023-01-19T04:35:07.131Z,99703.44
2023-01-19T04:37:34.185Z,99694.66
2023-01-19T04:40:01.258Z,99685.75
2023-01-19T04:42:30.043Z,99694.28
2023-01-19T04:44:57.167Z,99680.81
2023-01-19T04:47:24.283Z,99686.34
2023-01-19T04:49:51.374Z,99691.09
2023-01-19T04:52:18.549Z,99676.41
2023-01-19T04:54:45.629Z,99668.13
2023-01-19T04:57:12.741Z,99685.66
2023-01-19T04:59:40.266Z,99679.72
2023-01-19T05:02:07.460Z,99673.31
2023-01-19T05:04:34.743Z,99689.94
2023-01-19T05:07:02.305Z,99695.16
2023-01-19T05:09:29.411Z,99702.97
2023-01-19T05:11:56.569Z,99707.47
2023-01-19T05:14:23.737Z,99685.19
2023-01-19T05:16:50.865Z,99700.31
2023-01-19T05:19:17.960Z,99691.63
2023-01-19T05:21:45.098Z,99691.59
2023-01-19T05:24:12.303Z,99680.00
2023-01-19T05:26:39.530Z,99693.38
2023-01-19T05:29:06.689Z,99699.66
2023-01-19T05:31:34.014Z,99710.09
2023-01-19T05:34:01.180Z,99711.06
2023-01-19T05:36:28.432Z,99711.28
2023-01-19T05:38:55.679Z,99714.13
2023-01-19T05:41:23.277Z,99708.31
2023-01-19T05:43:50.419Z,99732.13
2023-01-19T05:46:17.554Z,99725.72
2023-01-19T05:48:45.258Z,99720.38
2023-01-19T05:51:12.464Z,99733.31
2023-01-19T05:53:39.687Z,99731.66
2023-01-19T05:56:09.373Z,99725.72
2023-01-19T05:58:39.496Z,99729.97
2023-01-19T06:01:08.758Z,99741.81
2023-01-19T06:03:37.310Z,99753.22
2023-01-19T06:06:04.651Z,99749.69
2023-01-19T06:08:31.868Z,99760.34
2023-01-19T06:10:58.978Z,99755.13
2023-01-19T06:13:26.198Z,99751.22
2023-01-19T06:15:59.807Z,99760.00
2023-01-19T06:18:27.264Z,99767.09
2023-01-19T06:21:03.342Z,99765.34
2023-01-19T06:23:34.331Z,99759.88
2023-01-19T06:26:02.085Z,99775.75
2023-01-19T06:28:29.317Z,99778.38
2023-01-19T06:30:57.382Z,99785.09
2023-01-19T06:33:25.492Z,99799.13
2023-01-19T06:35:52.725Z,99804.31
2023-01-19T06:38:19.927Z,99809.81
2023-01-19T06:40:54.010Z,99812.03
2023-01-19T06:43:21.615Z,99812.50
2023-01-19T06:45:49.184Z,99801.63
2023-01-19T06:48:17.195Z,99800.44
2023-01-19T06:50:48.592Z,99793.31
2023-01-19T06:53:16.821Z,99775.53
2023-01-19T06:55:44.489Z,99799.84
2023-01-19T06:58:11.671Z,99801.84
2023-01-19T07:00:38.971Z,99806.00
2023-01-19T07:03:07.755Z,99805.28
2023-01-19T07:05:36.237Z,99809.78
2023-01-19T07:08:04.140Z,99817.63
2023-01-19T07:11:22.403Z,99802.91
2023-01-19T07:13:19.195Z,99799.72
2023-01-19T07:15:46.374Z,99811.13
2023-01-19T07:18:13.484Z,99814.88
2023-01-19T07:20:40.622Z,99817.97
2023-01-19T07:23:07.875Z,99821.78
2023-01-19T07:25:34.960Z,99814.44
2023-01-19T07:28:02.376Z,99809.91
2023-01-19T07:30:29.656Z,99833.41
2023-01-19T07:32:58.350Z,99833.41
2023-01-19T07:35:25.988Z,99823.69
2023-01-19T07:37:53.101Z,99811.78
2023-01-19T07:40:20.633Z,99820.13
2023-01-19T07:42:50.472Z,99835.06
2023-01-19T07:45:20.586Z,99847.63
2023-01-19T07:47:50.074Z,99864.94
2023-01-19T07:50:21.361Z,99866.63
2023-01-19T07:52:51.888Z,99879.53
2023-01-19T07:55:20.315Z,99881.44
2023-01-19T07:57:51.741Z,99864.00
2023-01-19T08:00:22.104Z,99872.53
2023-01-19T08:02:52.303Z,99889.88
2023-01-19T08:05:20.577Z,99868.25
2023-01-19T08:07:48.497Z,99876.59
2023-01-19T08:10:16.790Z,99884.75
2023-01-19T08:12:44.187Z,99913.38
2023-01-19T08:15:11.734Z,99919.56
2023-01-19T08:17:38.912Z,99901.84
2023-01-19T08:20:06.860Z,99905.03
2023-01-19T08:22:33.961Z,99899.81
2023-01-19T08:25:01.079Z,99908.28
2023-01-19T08:27:31.394Z,99915.38
2023-01-19T08:29:59.030Z,99925.72
2023-01-19T08:32:26.335Z,99913.84
2023-01-19T08:34:53.555Z,99911.22
2023-01-19T08:37:20.622Z,99931.88
2023-01-19T08:39:47.746Z,99930.47
2023-01-19T08:42:14.850Z,99932.84
2023-01-19T08:44:57.224Z,99930.94
2023-01-19T08:47:25.048Z,99931.41
2023-01-19T08:49:52.185Z,99936.41
2023-01-19T08:52:19.270Z,99920.72
2023-01-19T08:54:46.388Z,99918.13
2023-01-19T08:57:13.450Z,99921.41
2023-01-19T08:59:40.643Z,99918.34
2023-01-19T09:02:10.700Z,99920.97
2023-01-19T09:04:38.158Z,99912.66
2023-01-19T09:09:33.198Z,99924.53
2023-01-19T09:12:00.281Z,99921.78
2023-01-19T09:14:27.400Z,99920.00
2023-01-19T09:16:56.286Z,99906.50
2023-01-19T09:19:23.346Z,99914.31
2023-01-19T09:21:51.059Z,99920.72
2023-01-19T09:24:18.185Z,99919.78
2023-01-19T09:26:45.559Z,99922.63
2023-01-19T09:29:13.727Z,99905.06
2023-01-19T09:31:41.205Z,99914.25
2023-01-19T09:34:08.328Z,99904.78
2023-01-19T09:36:37.392Z,99889.03
2023-01-19T09:39:04.546Z,99898.66
2023-01-19T09:41:35.425Z,99890.13
2023-01-19T09:44:02.606Z,99883.94
2023-01-19T09:46:39.181Z,99900.28
2023-01-19T09:49:14.254Z,99888.31
2023-01-19T09:51:46.406Z,99900.53
2023-01-19T09:54:16.450Z,99904.56
2023-01-19T09:56:46.130Z,99898.66
2023-01-19T09:59:33.690Z,99911.94
2023-01-19T10:02:14.659Z,99905.03
2023-01-19T10:04:58.286Z,99899.38
2023-01-19T10:07:32.696Z,99909.22
2023-01-19T10:10:07.274Z,99912.28
2023-01-19T10:12:51.101Z,99920.00
2023-01-19T10:15:21.142Z,99920.25
2023-01-19T10:18:10.395Z,99905.78
2023-01-19T10:20:43.644Z,99915.03
2023-01-19T10:23:36.086Z,99897.22
2023-01-19T10:26:28.985Z,99892.94
2023-01-19T10:29:03.096Z,99914.56
2023-01-19T10:31:31.881Z,99895.31
2023-01-19T10:33:59.069Z,99915.75
2023-01-19T10:36:35.909Z,99909.56
2023-01-19T10:39:07.669Z,99894.38
2023-01-19T10:41:49.061Z,99900.78
2023-01-19T10:44:27.461Z,99899.25
2023-01-19T10:46:58.789Z,99883.47
2023-01-19T10:49:39.235Z,99913.25
2023-01-19T10:52:09.052Z,99911.69
2023-01-19T10:54:37.701Z,99910.97
2023-01-19T10:57:09.736Z,99912.63
2023-01-19T10:59:46.870Z,99918.72
2023-01-19T11:02:18.796Z,99897.94
2023-01-19T11:04:50.112Z,99907.69
2023-01-19T11:07:26.354Z,99903.63
2023-01-19T11:10:15.378Z,99915.03
2023-01-19T11:12:53.417Z,99910.50
2023-01-19T11:15:29.907Z,99922.59
2023-01-19T11:17:57.269Z,99920.22
2023-01-19T11:20:30.661Z,99922.84
2023-01-19T11:23:34.311Z,99936.63
2023-01-19T11:26:05.501Z,99943.75
2023-01-19T11:28:44.982Z,99924.97
2023-01-19T11:31:15.052Z,99936.81
2023-01-19T11:33:50.728Z,99926.50
2023-01-19T11:36:23.570Z,99926.88
2023-01-19T11:38:53.660Z,99949.28
2023-01-19T11:41:23.582Z,99941.81
2023-01-19T11:43:55.236Z,99946.44
2023-01-19T11:46:26.668Z,99956.25
2023-01-19T11:49:02.209Z,99965.41
2023-01-19T11:51:37.448Z,99968.09
2023-01-19T11:54:17.931Z,99965.25
2023-01-19T11:56:47.726Z,99961.84
2023-01-19T11:59:15.262Z,99957.06
2023-01-19T12:01:50.895Z,99945.00
2023-01-19T12:04:27.800Z,99961.00
2023-01-19T12:06:57.487Z,99951.75
2023-01-19T12:09:28.471Z,99943.75
2023-01-19T12:11:57.760Z,99973.63
2023-01-19T12:14:43.903Z,99987.25
2023-01-19T12:17:17.778Z,99967.19
2023-01-19T12:19:54.893Z,99976.63
2023-01-19T12:22:24.123Z,99998.34
2023-01-19T12:25:10.600Z,99961.75
2023-01-19T12:27:43.566Z,99995.19
2023-01-19T12:30:31.408Z,100010.16
2023-01-19T12:33:21.060Z,100018.41
2023-01-19T12:35:59.690Z,100012.59
2023-01-19T12:38:39.025Z,100001.34
2023-01-19T12:41:22.291Z,100007.00
2023-01-19T12:44:11.236Z,100024.25
2023-01-19T12:46:39.567Z,100020.16
2023-01-19T12:49:27.367Z,99992.31
2023-01-19T12:52:17.431Z,100020.38
2023-01-19T12:54:54.036Z,100022.22
2023-01-19T12:57:39.281Z,100016.25
2023-01-19T13:00:28.966Z,100024.97
2023-01-19T13:02:58.544Z,100008.28
2023-01-19T13:05:55.306Z,100004.88
2023-01-19T13:08:26.610Z,99987.03
2023-01-19T13:10:59.988Z,100001.63
2023-01-19T13:13:37.979Z,100004.06
2023-01-19T13:16:20.627Z,99999.41
2023-01-19T13:18:54.048Z,99988.84
2023-01-19T13:21:43.623Z,99991.88
2023-01-19T13:24:15.151Z,100004.63
2023-01-19T13:26:55.583Z,99998.84
2023-01-19T13:29:35.457Z,99980.41
2023-01-19T13:32:06.558Z,99972.63
2023-01-19T13:35:02.257Z,99983.03
2023-01-19T13:37:40.263Z,100000.38
2023-01-19T13:40:08.242Z,99989.13
2023-01-19T13:42:41.572Z,99986.72
2023-01-19T13:45:33.889Z,99971.69
2023-01-19T13:48:05.034Z,99991.75
2023-01-19T13:50:59.811Z,99991.19
2023-01-19T13:53:26.945Z,100000.50
2023-01-19T13:56:22.155Z,99978.31
2023-01-19T13:59:03.990Z,99985.22
2023-01-19T14:01:33.098Z,99970.50
2023-01-19T14:04:00.607Z,99996.56
2023-01-19T14:06:30.739Z,100009.53
2023-01-19T14:09:10.735Z,100025.34
2023-01-19T14:11:38.252Z,100035.78
2023-01-19T14:14:05.457Z,100035.94
2023-01-19T14:16:32.588Z,100039.75
2023-01-19T14:19:04.795Z,100055.59
2023-01-19T14:21:42.562Z,100045.97
2023-01-19T14:24:18.548Z,100059.75
2023-01-19T14:26:53.043Z,100067.72
2023-01-19T14:29:33.539Z,100057.44
2023-01-19T14:32:00.610Z,100054.13
2023-01-19T14:34:37.265Z,100052.13
2023-01-19T14:37:14.401Z,100051.78
2023-01-19T14:39:46.376Z,100032.00
2023-01-19T14:42:24.954Z,100044.59
2023-01-19T14:44:54.191Z,100048.63
2023-01-19T14:47:43.425Z,100048.50
2023-01-19T14:50:33.127Z,100048.00
2023-01-19T14:53:25.069Z,100049.66
2023-01-19T14:55:59.474Z,100050.75
2023-01-19T14:58:32.688Z,100054.00
2023-01-19T15:01:00.097Z,100035.72
2023-01-19T15:03:44.628Z,100052.25
2023-01-19T15:06:18.892Z,100041.41
2023-01-19T15:08:46.883Z,100015.88
2023-01-19T15:11:27.739Z,100014.22
2023-01-19T15:13:55.693Z,100017.50
2023-01-19T15:16:29.273Z,100048.66
2023-01-19T15:18:56.634Z,100038.75
2023-01-19T15:21:26.575Z,100024.22
2023-01-19T15:23:54.794Z,100008.28
2023-01-19T15:26:24.120Z,100041.97
2023-01-19T15:28:51.761Z,100047.06
2023-01-19T15:31:21.938Z,100053.78
2023-01-19T15:33:49.416Z,100043.44
2023-01-19T15:36:18.742Z,100052.34
2023-01-19T15:38:46.812Z,100046.63
2023-01-19T15:41:21.222Z,100065.88
2023-01-19T15:43:49.711Z,100052.59
2023-01-19T15:46:20.752Z,100047.38
2023-01-19T15:48:48.453Z,100048.47
2023-01-19T15:51:18.057Z,100050.56
2023-01-19T15:53:45.939Z,100032.19
2023-01-19T15:56:24.638Z,100027.44
2023-01-19T15:58:53.555Z,100024.81
2023-01-19T16:01:23.313Z,100026.38
2023-01-19T16:03:50.997Z,100015.88
2023-01-19T16:06:18.515Z,99994.50
2023-01-19T16:08:45.719Z,100015.69
2023-01-19T16:11:15.246Z,100009.75
2023-01-19T16:13:46.353Z,100003.78
2023-01-19T16:16:19.571Z,100002.53
2023-01-19T16:18:47.569Z,100005.31
2023-01-19T16:21:14.806Z,99997.69
2023-01-19T16:23:42.272Z,99986.97
2023-01-19T16:26:23.640Z,99990.69
2023-01-19T16:28:50.800Z,99980.00
2023-01-19T16:31:18.059Z,99986.28
2023-01-19T16:33:45.675Z,99978.06
2023-01-19T16:36:28.898Z,99973.38
2023-01-19T16:39:00.476Z,99997.97
2023-01-19T16:41:28.219Z,99972.72
2023-01-19T16:43:57.479Z,99985.88
2023-01-19T16:46:27.229Z,99984.16
2023-01-19T16:48:59.658Z,99988.28
2023-01-19T16:51:26.761Z,99989.13
2023-01-19T16:53:53.912Z,99985.38
2023-01-19T16:56:21.227Z,99973.34
2023-01-19T16:58:48.346Z,99954.13
2023-01-19T17:01:20.075Z,99984.16
2023-01-19T17:03:47.786Z,99976.28
2023-01-19T17:06:20.471Z,99972.19
2023-01-19T17:08:47.711Z,99979.31
2023-01-19T17:11:21.296Z,99953.88
2023-01-19T17:13:54.544Z,99964.28
2023-01-19T17:16:23.628Z,99962.97
2023-01-19T17:18:51.355Z,99961.00
2023-01-19T17:21:20.119Z,99962.97
2023-01-19T17:23:50.142Z,99960.19
2023-01-19T17:26:18.474Z,99952.19
2023-01-19T17:28:45.967Z,99956.38
2023-01-19T17:31:15.405Z,99932.75
2023-01-19T17:33:47.045Z,99932.94
2023-01-19T17:36:17.543Z,99948.09
2023-01-19T17:38:44.669Z,99933.94
2023-01-19T17:41:16.822Z,99940.28
2023-01-19T17:43:44.741Z,99965.28
2023-01-19T17:46:12.997Z,99949.66
2023-01-19T17:48:40.176Z,99961.06
2023-01-19T17:51:13.082Z,99960.19
2023-01-19T17:53:41.227Z,99962.06
2023-01-19T17:56:16.129Z,99963.91
2023-01-19T17:58:44.925Z,99976.97
2023-01-19T18:01:15.037Z,99969.03
2023-01-19T18:03:42.576Z,99950.38
2023-01-19T18:06:10.330Z,99941.88
2023-01-19T18:08:42.818Z,99967.22
2023-01-19T18:11:11.356Z,99958.97
2023-01-19T18:13:39.274Z,99976.66
2023-01-19T18:16:10.254Z,99976.56
2023-01-19T18:18:37.329Z,99973.41
2023-01-19T18:21:08.039Z,99958.97
2023-01-19T18:23:35.906Z,99960.88
2023-01-19T18:26:09.909Z,99965.75
2023-01-19T18:28:37.683Z,99963.00
2023-01-19T18:31:12.821Z,99954.44
2023-01-19T18:33:40.647Z,99939.91
2023-01-19T18:36:08.938Z,99936.34
2023-01-19T18:38:36.315Z,99925.53
2023-01-19T18:41:10.159Z,99957.19
2023-01-19T18:43:37.748Z,99937.97
2023-01-19T18:46:05.353Z,99941.00
2023-01-19T18:48:32.769Z,99932.91
2023-01-19T18:51:03.547Z,99925.00
2023-01-19T18:53:31.874Z,99940.84
2023-01-19T18:56:00.113Z,99944.44
2023-01-19T18:58:29.310Z,99939.69
2023-01-19T19:00:58.140Z,99918.06
2023-01-19T19:03:25.673Z,99917.09
2023-01-19T19:05:52.840Z,99913.50
2023-01-19T19:08:19.996Z,99923.31
2023-01-19T19:10:47.158Z,99921.91
2023-01-19T19:13:16.040Z,99935.94
2023-01-19T19:15:44.527Z,99926.03
2023-01-19T19:18:14.060Z,99938.97
2023-01-19T19:20:44.335Z,99933.81
2023-01-19T19:23:11.995Z,99933.91
2023-01-19T19:25:39.444Z,99926.13
2023-01-19T19:28:06.833Z,99918.16
2023-01-19T19:30:35.788Z,99931.53
2023-01-19T19:33:02.957Z,99932.66
2023-01-19T19:35:30.123Z,99941.97
2023-01-19T19:37:57.815Z,99938.56
2023-01-19T19:40:27.084Z,99942.63
2023-01-19T19:42:56.353Z,99929.78
2023-01-19T19:45:24.962Z,99950.97
2023-01-19T19:47:52.102Z,99947.16
2023-01-19T19:50:19.265Z,99945.06
2023-01-19T19:52:46.433Z,99943.19
2023-01-19T19:55:13.690Z,99928.00
2023-01-19T19:57:40.881Z,99933.94
2023-01-19T20:00:08.624Z,99932.53
2023-01-19T20:02:38.820Z,99939.41
2023-01-19T20:05:06.287Z,99952.09
2023-01-19T20:07:33.519Z,99941.44
2023-01-19T20:10:00.703Z,99949.38
2023-01-19T20:12:27.955Z,99921.81
2023-01-19T20:14:55.084Z,99943.66
2023-01-19T20:17:23.323Z,99908.88
2023-01-19T20:19:50.505Z,99937.97
2023-01-19T20:22:17.773Z,99937.06
2023-01-19T20:24:44.946Z,99933.69
2023-01-19T20:27:12.102Z,99925.78
2023-01-19T20:29:39.397Z,99913.06
2023-01-19T20:32:06.587Z,99904.91
2023-01-19T20:34:34.221Z,99885.19
2023-01-19T20:37:02.238Z,99905.50
2023-01-19T20:39:34.716Z,99891.69
2023-01-19T20:42:02.440Z,99896.09
2023-01-19T20:44:30.328Z,99904.22
2023-01-19T20:46:57.534Z,99900.25
2023-01-19T20:49:24.746Z,99910.06
2023-01-19T20:51:52.269Z,99908.53
2023-01-19T20:54:22.743Z,99910.03
2023-01-19T20:56:50.285Z,99926.63
2023-01-19T20:59:17.836Z,99918.28
2023-01-19T21:01:45.620Z,99917.13
2023-01-19T21:04:12.976Z,99920.47
2023-01-19T21:06:40.420Z,99917.63
2023-01-19T21:09:09.697Z,99927.53
2023-01-19T21:11:38.304Z,99909.03
2023-01-19T21:14:06.746Z,99928.72
2023-01-19T21:16:34.759Z,99922.31
2023-01-19T21:19:01.946Z,99904.28
2023-01-19T21:21:31.116Z,99901.66
2023-01-19T21:24:00.662Z,99906.16
2023-01-19T21:26:30.077Z,99908.50
2023-01-19T21:28:58.458Z,99912.50
2023-01-19T21:31:27.775Z,99920.19
2023-01-19T21:33:56.680Z,99915.84
2023-01-19T21:36:24.772Z,99917.00
2023-01-19T21:38:52.576Z,99897.31
2023-01-19T21:41:20.234Z,99932.72
2023-01-19T21:43:47.834Z,99917.13
2023-01-19T21:46:32.259Z,99927.34
2023-01-19T21:49:02.036Z,99903.28
2023-01-19T21:51:30.141Z,99904.81
2023-01-19T21:53:59.763Z,99891.75
2023-01-19T21:56:30.150Z,99897.22
2023-01-19T21:58:58.653Z,99888.22
2023-01-19T22:01:25.795Z,99890.81
2023-01-19T22:03:57.233Z,99887.94
2023-01-19T22:06:26.165Z,99902.63
2023-01-19T22:08:54.271Z,99893.75
2023-01-19T22:11:21.979Z,99880.34
2023-01-19T22:13:49.183Z,99886.91
2023-01-19T22:16:18.440Z,99896.50
2023-01-19T22:18:50.022Z,99898.38
2023-01-19T22:21:20.432Z,99897.47
2023-01-19T22:23:52.985Z,99902.81
2023-01-19T22:26:20.345Z,99896.03
2023-01-19T22:28:47.621Z,99896.97
2023-01-19T22:31:18.829Z,99879.19
2023-01-19T22:33:46.422Z,99870.63
2023-01-19T22:36:19.789Z,99884.91
2023-01-19T22:38:57.481Z,99870.28
2023-01-19T22:41:31.220Z,99877.72
2023-01-19T22:44:00.521Z,99877.72
2023-01-19T22:46:30.284Z,99885.22
2023-01-19T22:48:58.173Z,99894.34
2023-01-19T22:51:26.607Z,99887.03
2023-01-19T22:53:53.795Z,99878.00
2023-01-19T22:56:26.144Z,99892.50
2023-01-19T22:58:53.763Z,99895.09
2023-01-19T23:01:36.172Z,99894.38
2023-01-19T23:04:05.579Z,99899.13
2023-01-19T23:06:35.419Z,99892.09
2023-01-19T23:09:05.849Z,99902.66
2023-01-19T23:11:37.241Z,99898.06
2023-01-19T23:14:06.932Z,99917.50
2023-01-19T23:16:35.999Z,99898.78
2023-01-19T23:19:04.017Z,99908.84
2023-01-19T23:21:32.390Z,99919.28
2023-01-19T23:24:01.880Z,99905.78
2023-01-19T23:26:30.935Z,99910.78
2023-01-19T23:29:00.392Z,99909.09
2023-01-19T23:31:33.192Z,99905.78
2023-01-19T23:34:03.073Z,99913.69
2023-01-19T23:36:32.292Z,99889.13
2023-01-19T23:39:01.414Z,99909.81
2023-01-19T23:41:31.123Z,99905.56
2023-01-19T23:43:58.575Z,99913.13
2023-01-19T23:46:25.789Z,99910.63
2023-01-19T23:48:53.736Z,99909.34
2023-01-19T23:51:24.027Z,99909.91
2023-01-19T23:53:51.840Z,99907.66
2023-01-19T23:56:26.306Z,99914.31
2023-01-19T23:58:58.985Z,99905.19
